createdAt,value
2017-08-22T00:01:48.549Z,93.60
2017-08-22T00:04:16.103Z,93.70
2017-08-22T00:06:43.606Z,93.70
2017-08-22T00:09:11.194Z,93.80
2017-08-22T00:11:38.741Z,93.70
2017-08-22T00:14:06.230Z,93.60
2017-08-22T00:16:33.706Z,93.50
2017-08-22T00:19:01.246Z,93.60
2017-08-22T00:21:28.800Z,93.70
2017-08-22T00:23:56.300Z,93.70
2017-08-22T00:26:23.786Z,93.70
2017-08-22T00:28:51.326Z,93.90
2017-08-22T00:31:18.847Z,93.90
2017-08-22T00:33:46.341Z,93.80
2017-08-22T00:36:13.861Z,93.80
2017-08-22T00:38:41.380Z,93.90
2017-08-22T00:41:08.976Z,93.90
2017-08-22T00:43:36.505Z,94.00
2017-08-22T00:46:04.022Z,94.10
2017-08-22T00:48:31.549Z,94.20
2017-08-22T00:50:59.045Z,94.30
2017-08-22T00:53:26.528Z,94.30
2017-08-22T00:55:54.102Z,94.40
2017-08-22T00:58:21.604Z,94.40
2017-08-22T01:00:49.116Z,94.30
2017-08-22T01:03:16.605Z,94.40
2017-08-22T01:05:44.097Z,94.70
2017-08-22T01:08:11.582Z,94.80
2017-08-22T01:10:39.099Z,94.90
2017-08-22T01:13:06.575Z,94.80
2017-08-22T01:15:34.074Z,94.80
2017-08-22T01:18:01.589Z,94.90
2017-08-22T01:20:29.106Z,94.90
2017-08-22T01:22:56.614Z,94.90
2017-08-22T01:25:24.099Z,94.90
2017-08-22T01:27:51.617Z,94.90
2017-08-22T01:30:19.109Z,94.80
2017-08-22T01:32:46.628Z,94.60
2017-08-22T01:35:14.127Z,94.60
2017-08-22T01:37:41.616Z,94.80
2017-08-22T01:40:09.092Z,94.90
2017-08-22T01:42:36.606Z,95.10
2017-08-22T01:45:04.086Z,95.10
2017-08-22T01:47:31.585Z,95.30
2017-08-22T01:49:59.081Z,95.10
2017-08-22T01:52:26.572Z,95.10
2017-08-22T01:54:54.098Z,95.10
2017-08-22T01:57:21.619Z,95.20
2017-08-22T01:59:49.113Z,95.30
2017-08-22T02:02:16.612Z,95.50
2017-08-22T02:04:44.126Z,95.60
2017-08-22T02:07:11.639Z,95.60
2017-08-22T02:09:39.297Z,95.80
2017-08-22T02:12:06.959Z,95.80
2017-08-22T02:14:34.459Z,95.70
2017-08-22T02:17:01.948Z,95.70
2017-08-22T02:19:29.458Z,95.80
2017-08-22T02:21:56.972Z,95.70
2017-08-22T02:24:24.436Z,95.80
2017-08-22T02:26:51.958Z,96.00
2017-08-22T02:29:19.481Z,96.00
2017-08-22T02:31:46.995Z,96.10
2017-08-22T02:34:14.523Z,96.00
2017-08-22T02:36:42.030Z,96.10
2017-08-22T02:39:09.558Z,96.20
2017-08-22T02:41:37.084Z,95.80
2017-08-22T02:44:04.606Z,95.80
2017-08-22T02:46:32.113Z,95.90
2017-08-22T02:48:59.604Z,95.80
2017-08-22T02:51:27.094Z,95.80
2017-08-22T02:53:54.596Z,95.80
2017-08-22T02:56:22.085Z,95.80
2017-08-22T02:58:49.589Z,95.80
2017-08-22T03:01:17.206Z,95.90
2017-08-22T03:03:44.682Z,95.80
2017-08-22T03:06:12.274Z,95.90
2017-08-22T03:08:39.779Z,95.90
2017-08-22T03:11:07.311Z,95.90
2017-08-22T03:13:34.849Z,96.10
2017-08-22T03:16:02.347Z,96.10
2017-08-22T03:18:29.838Z,96.20
2017-08-22T03:20:57.338Z,96.10
2017-08-22T03:23:25.127Z,96.20
2017-08-22T03:25:52.605Z,96.10
2017-08-22T03:28:20.106Z,96.20
2017-08-22T03:30:47.640Z,96.30
2017-08-22T03:33:15.148Z,96.00
2017-08-22T03:35:42.632Z,95.90
2017-08-22T03:38:10.143Z,95.90
2017-08-22T03:40:37.629Z,96.00
2017-08-22T03:43:05.144Z,95.90
2017-08-22T03:45:32.633Z,95.80
2017-08-22T03:48:00.163Z,96.00
2017-08-22T03:50:27.656Z,96.10
2017-08-22T03:52:55.145Z,96.10
2017-08-22T03:55:22.667Z,96.30
2017-08-22T03:57:50.153Z,96.40
2017-08-22T04:00:17.634Z,96.50
2017-08-22T04:02:45.112Z,96.20
2017-08-22T04:05:12.627Z,96.20
2017-08-22T04:07:40.114Z,96.20
2017-08-22T04:10:07.595Z,96.30
2017-08-22T04:12:35.086Z,96.40
2017-08-22T04:15:02.573Z,96.40
2017-08-22T04:17:30.086Z,96.70
2017-08-22T04:19:57.678Z,96.50
2017-08-22T04:22:25.200Z,96.50
2017-08-22T04:24:52.713Z,96.50
2017-08-22T04:27:20.284Z,96.50
2017-08-22T04:29:47.801Z,96.70
2017-08-22T04:32:15.332Z,96.70
2017-08-22T04:34:42.829Z,96.80
2017-08-22T04:37:10.316Z,96.90
2017-08-22T04:39:37.839Z,97.10
2017-08-22T04:42:05.358Z,97.10
2017-08-22T04:44:32.872Z,97.30
2017-08-22T04:47:00.375Z,97.50
2017-08-22T04:49:27.873Z,97.40
2017-08-22T04:51:55.384Z,97.30
2017-08-22T04:54:22.933Z,97.70
2017-08-22T04:56:50.442Z,97.10
2017-08-22T04:59:17.966Z,97.10
2017-08-22T05:01:45.471Z,97.10
2017-08-22T05:04:12.991Z,97.20
2017-08-22T05:06:40.500Z,97.10
2017-08-22T05:09:08.023Z,97.00
2017-08-22T05:11:35.495Z,96.90
2017-08-22T05:14:02.997Z,96.80
2017-08-22T05:16:30.526Z,96.80
2017-08-22T05:18:58.028Z,96.90
2017-08-22T05:21:25.554Z,96.50
2017-08-22T05:23:53.160Z,96.40
2017-08-22T05:26:20.656Z,96.30
2017-08-22T05:28:48.162Z,96.20
2017-08-22T05:31:15.674Z,96.10
2017-08-22T05:33:43.158Z,96.00
2017-08-22T05:36:10.677Z,96.00
2017-08-22T05:38:38.226Z,95.70
2017-08-22T05:41:09.089Z,95.50
2017-08-22T05:43:36.563Z,95.50
2017-08-22T05:46:04.074Z,95.70
2017-08-22T05:48:31.565Z,95.20
2017-08-22T05:50:59.093Z,94.80
2017-08-22T05:53:26.611Z,95.00
2017-08-22T05:55:54.206Z,94.60
2017-08-22T05:58:21.712Z,94.40
2017-08-22T06:00:49.264Z,93.90
2017-08-22T06:03:16.756Z,93.70
2017-08-22T06:05:44.253Z,92.60
2017-08-22T06:08:11.799Z,92.10
2017-08-22T06:10:39.351Z,92.00
2017-08-22T06:13:06.870Z,92.60
2017-08-22T06:15:34.357Z,92.90
2017-08-22T06:18:02.000Z,92.60
2017-08-22T06:20:29.516Z,92.40
2017-08-22T06:22:57.081Z,92.80
2017-08-22T06:25:24.669Z,92.20
2017-08-22T06:27:52.198Z,92.30
2017-08-22T06:30:19.686Z,91.70
2017-08-22T06:32:47.177Z,91.70
2017-08-22T06:35:14.807Z,91.90
2017-08-22T06:37:42.333Z,91.90
2017-08-22T06:40:09.834Z,91.90
2017-08-22T06:42:37.339Z,91.80
2017-08-22T06:45:04.843Z,91.90
2017-08-22T06:47:32.381Z,92.00
2017-08-22T06:50:00.005Z,92.30
2017-08-22T06:52:27.528Z,92.10
2017-08-22T06:54:55.058Z,92.10
2017-08-22T06:57:22.564Z,92.60
2017-08-22T06:59:50.102Z,92.30
2017-08-22T07:02:17.614Z,91.90
2017-08-22T07:04:45.155Z,91.90
2017-08-22T07:07:12.657Z,91.80
2017-08-22T07:09:40.167Z,91.30
2017-08-22T07:12:07.662Z,91.30
2017-08-22T07:14:35.150Z,91.10
2017-08-22T07:17:05.020Z,90.60
2017-08-22T07:19:32.516Z,91.20
2017-08-22T07:22:00.025Z,89.70
2017-08-22T07:24:27.535Z,88.60
2017-08-22T07:26:55.046Z,87.80
2017-08-22T07:29:22.587Z,88.40
2017-08-22T07:31:50.074Z,88.00
2017-08-22T07:34:17.593Z,87.50
2017-08-22T07:36:45.096Z,86.80
2017-08-22T07:39:12.577Z,85.10
2017-08-22T07:41:40.103Z,83.10
2017-08-22T07:44:07.600Z,84.10
2017-08-22T07:46:35.111Z,84.40
2017-08-22T07:49:02.621Z,83.20
2017-08-22T07:51:30.158Z,82.80
2017-08-22T07:53:57.697Z,79.70
2017-08-22T07:56:25.194Z,79.70
2017-08-22T07:58:52.842Z,79.40
2017-08-22T08:01:20.360Z,78.70
2017-08-22T08:03:47.883Z,80.00
2017-08-22T08:06:15.403Z,79.50
2017-08-22T08:08:42.913Z,79.00
2017-08-22T08:11:10.468Z,79.40
2017-08-22T08:13:38.058Z,79.10
2017-08-22T08:16:05.558Z,78.50
2017-08-22T08:18:33.469Z,78.90
2017-08-22T08:21:00.960Z,78.90
2017-08-22T08:23:28.441Z,77.90
2017-08-22T08:25:55.931Z,78.40
2017-08-22T08:28:23.438Z,79.50
2017-08-22T08:30:50.950Z,79.40
2017-08-22T08:33:18.445Z,80.20
2017-08-22T08:35:45.945Z,79.40
2017-08-22T08:38:13.513Z,78.90
2017-08-22T08:40:41.025Z,79.50
2017-08-22T08:43:08.581Z,79.50
2017-08-22T08:45:36.080Z,80.20
2017-08-22T08:48:03.595Z,80.50
2017-08-22T08:50:31.131Z,80.70
2017-08-22T08:52:58.680Z,80.30
2017-08-22T08:55:26.197Z,80.60
2017-08-22T08:57:53.672Z,80.60
2017-08-22T09:00:21.180Z,81.40
2017-08-22T09:02:48.687Z,81.10
2017-08-22T09:05:16.179Z,80.80
2017-08-22T09:07:43.674Z,80.70
2017-08-22T09:10:11.198Z,80.20
2017-08-22T09:12:38.688Z,78.60
2017-08-22T09:15:06.364Z,79.00
2017-08-22T09:17:33.855Z,79.50
2017-08-22T09:20:01.391Z,78.70
2017-08-22T09:22:28.912Z,78.90
2017-08-22T09:24:56.476Z,79.10
2017-08-22T09:27:23.955Z,78.30
2017-08-22T09:29:51.467Z,78.90
2017-08-22T09:32:19.095Z,78.80
2017-08-22T09:34:46.784Z,79.00
2017-08-22T09:37:14.330Z,77.70
2017-08-22T09:39:41.833Z,77.90
2017-08-22T09:42:09.365Z,77.70
2017-08-22T09:44:36.886Z,77.00
2017-08-22T09:47:04.393Z,77.10
2017-08-22T09:49:31.929Z,75.20
2017-08-22T09:51:59.435Z,74.90
2017-08-22T09:54:26.962Z,74.00
2017-08-22T09:56:54.468Z,74.50
2017-08-22T09:59:22.006Z,74.70
2017-08-22T10:01:49.502Z,74.20
2017-08-22T10:04:16.997Z,71.80
2017-08-22T10:06:44.484Z,72.90
2017-08-22T10:09:11.973Z,73.80
2017-08-22T10:11:39.503Z,71.80
2017-08-22T10:14:07.046Z,70.70
2017-08-22T10:16:34.534Z,69.40
2017-08-22T10:19:02.252Z,70.00
2017-08-22T10:21:29.751Z,66.90
2017-08-22T10:23:57.266Z,67.30
2017-08-22T10:26:24.760Z,68.80
2017-08-22T10:28:52.252Z,69.80
2017-08-22T10:31:19.766Z,69.50
2017-08-22T10:33:47.271Z,66.60
2017-08-22T10:36:14.772Z,63.30
2017-08-22T10:38:44.052Z,59.70
2017-08-22T10:41:11.605Z,60.50
2017-08-22T10:43:39.175Z,58.40
2017-08-22T10:46:06.797Z,59.60
2017-08-22T10:48:34.301Z,59.90
2017-08-22T10:51:02.621Z,59.50
2017-08-22T10:53:30.130Z,59.80
2017-08-22T10:55:57.616Z,61.00
2017-08-22T10:58:25.166Z,59.10
2017-08-22T11:00:52.670Z,58.50
2017-08-22T11:03:20.165Z,58.80
2017-08-22T11:05:47.666Z,58.40
2017-08-22T11:08:15.321Z,59.30
2017-08-22T11:10:42.785Z,58.40
2017-08-22T11:13:10.297Z,59.30
2017-08-22T11:15:37.790Z,60.40
2017-08-22T11:18:05.293Z,61.50
2017-08-22T11:20:32.798Z,61.60
2017-08-22T11:23:00.321Z,61.70
2017-08-22T11:25:27.817Z,61.20
2017-08-22T11:27:55.306Z,63.00
2017-08-22T11:30:22.817Z,62.80
2017-08-22T11:32:50.319Z,63.20
2017-08-22T11:35:17.811Z,63.30
2017-08-22T11:37:45.309Z,61.80
2017-08-22T11:40:12.812Z,59.00
2017-08-22T11:42:40.318Z,59.10
2017-08-22T11:45:07.801Z,58.90
2017-08-22T11:47:35.285Z,59.60
2017-08-22T11:50:02.810Z,59.60
2017-08-22T11:52:30.306Z,59.80
2017-08-22T11:54:57.838Z,60.00
2017-08-22T11:57:25.354Z,59.90
2017-08-22T11:59:53.025Z,59.60
2017-08-22T12:02:20.526Z,60.60
2017-08-22T12:04:48.021Z,60.80
2017-08-22T12:07:15.512Z,61.50
2017-08-22T12:09:43.008Z,62.30
2017-08-22T12:12:10.688Z,62.40
2017-08-22T12:14:38.202Z,62.70
2017-08-22T12:17:05.734Z,64.00
2017-08-22T12:19:33.256Z,64.60
2017-08-22T12:22:00.770Z,65.00
2017-08-22T12:24:28.274Z,65.90
2017-08-22T12:26:55.794Z,68.00
2017-08-22T12:29:23.314Z,69.20
2017-08-22T12:31:50.811Z,68.70
2017-08-22T12:34:18.364Z,68.80
2017-08-22T12:36:45.883Z,67.40
2017-08-22T12:39:13.392Z,67.40
2017-08-22T12:41:40.905Z,66.90
2017-08-22T12:44:08.405Z,65.80
2017-08-22T12:46:35.917Z,63.30
2017-08-22T12:49:03.462Z,64.10
2017-08-22T12:51:30.966Z,62.20
2017-08-22T12:53:58.497Z,59.80
2017-08-22T12:56:25.987Z,59.30
2017-08-22T12:58:53.506Z,58.70
2017-08-22T13:01:21.001Z,58.80
2017-08-22T13:03:48.588Z,58.90
2017-08-22T13:06:16.082Z,59.70
2017-08-22T13:08:43.597Z,59.90
2017-08-22T13:11:40.458Z,60.80
2017-08-22T13:14:08.024Z,61.50
2017-08-22T13:16:35.524Z,62.00
2017-08-22T13:19:03.016Z,63.60
2017-08-22T13:21:30.514Z,59.50
2017-08-22T13:23:58.016Z,59.20
2017-08-22T13:26:25.519Z,58.20
2017-08-22T13:28:53.022Z,58.00
2017-08-22T13:31:20.545Z,57.80
2017-08-22T13:33:48.070Z,57.50
2017-08-22T13:36:15.568Z,56.70
2017-08-22T13:38:43.072Z,55.70
2017-08-22T13:41:10.575Z,56.10
2017-08-22T13:43:38.069Z,57.20
2017-08-22T13:46:05.610Z,57.50
2017-08-22T13:48:33.090Z,57.80
2017-08-22T13:51:00.614Z,57.70
2017-08-22T13:53:28.137Z,59.90
2017-08-22T13:55:55.659Z,58.70
2017-08-22T13:58:23.163Z,59.30
2017-08-22T14:00:50.687Z,59.50
2017-08-22T14:03:18.205Z,59.80
2017-08-22T14:05:45.700Z,59.50
2017-08-22T14:08:13.278Z,58.70
2017-08-22T14:10:40.794Z,58.90
2017-08-22T14:13:08.305Z,58.60
2017-08-22T14:15:35.939Z,56.20
2017-08-22T14:18:03.469Z,54.40
2017-08-22T14:20:31.101Z,53.70
2017-08-22T14:22:58.594Z,54.00
2017-08-22T14:25:26.115Z,53.40
2017-08-22T14:27:53.630Z,53.60
2017-08-22T14:30:21.145Z,53.10
2017-08-22T14:32:48.634Z,53.30
2017-08-22T14:35:16.126Z,54.60
2017-08-22T14:37:43.657Z,54.70
2017-08-22T14:40:11.162Z,55.80
2017-08-22T14:42:38.737Z,55.40
2017-08-22T14:45:06.219Z,55.20
2017-08-22T14:47:33.753Z,56.20
2017-08-22T14:50:01.248Z,56.60
2017-08-22T14:52:28.816Z,56.00
2017-08-22T14:54:56.328Z,55.70
2017-08-22T14:57:23.895Z,56.40
2017-08-22T14:59:51.435Z,56.00
2017-08-22T15:02:18.929Z,57.10
2017-08-22T15:04:46.431Z,56.90
2017-08-22T15:07:13.961Z,56.80
2017-08-22T15:09:41.455Z,57.20
2017-08-22T15:12:09.011Z,57.30
2017-08-22T15:14:36.546Z,57.80
2017-08-22T15:17:04.074Z,58.00
2017-08-22T15:19:31.573Z,57.90
2017-08-22T15:21:59.071Z,57.10
2017-08-22T15:24:26.602Z,56.20
2017-08-22T15:26:54.232Z,56.90
2017-08-22T15:29:21.736Z,56.90
2017-08-22T15:31:49.247Z,56.40
2017-08-22T15:34:16.773Z,55.10
2017-08-22T15:36:44.278Z,55.60
2017-08-22T15:39:11.770Z,54.90
2017-08-22T15:41:39.279Z,55.00
2017-08-22T15:44:06.839Z,54.90
2017-08-22T15:46:34.347Z,54.30
2017-08-22T15:49:01.853Z,54.40
2017-08-22T15:51:29.370Z,55.00
2017-08-22T15:53:56.929Z,55.20
2017-08-22T15:56:24.445Z,55.00
2017-08-22T15:58:51.961Z,55.20
2017-08-22T16:01:19.485Z,55.00
2017-08-22T16:03:46.978Z,55.40
2017-08-22T16:06:14.508Z,56.00
2017-08-22T16:08:42.024Z,56.30
2017-08-22T16:11:09.553Z,56.60
2017-08-22T16:13:37.047Z,56.50
2017-08-22T16:16:04.545Z,57.10
2017-08-22T16:18:32.115Z,57.40
2017-08-22T16:20:59.645Z,57.70
2017-08-22T16:23:27.143Z,58.50
2017-08-22T16:25:54.685Z,58.20
2017-08-22T16:28:22.822Z,58.50
2017-08-22T16:30:50.346Z,58.50
2017-08-22T16:33:17.824Z,59.00
2017-08-22T16:35:45.372Z,58.90
2017-08-22T16:38:12.874Z,59.40
2017-08-22T16:40:40.374Z,59.60
2017-08-22T16:43:07.955Z,58.60
2017-08-22T16:45:35.458Z,58.60
2017-08-22T16:48:03.000Z,58.30
2017-08-22T16:50:30.509Z,58.80
2017-08-22T16:52:57.992Z,59.10
2017-08-22T16:55:25.485Z,59.20
2017-08-22T16:57:53.013Z,60.10
2017-08-22T17:00:20.521Z,59.80
2017-08-22T17:02:48.027Z,59.50
2017-08-22T17:05:15.633Z,60.30
2017-08-22T17:07:43.178Z,60.80
2017-08-22T17:10:15.869Z,60.30
2017-08-22T17:12:43.403Z,59.90
2017-08-22T17:15:10.911Z,59.90
2017-08-22T17:17:39.333Z,60.50
2017-08-22T17:20:06.951Z,60.20
2017-08-22T17:22:34.429Z,60.50
2017-08-22T17:25:02.033Z,60.90
2017-08-22T17:27:29.631Z,60.40
2017-08-22T17:29:57.684Z,61.10
2017-08-22T17:32:25.905Z,61.60
2017-08-22T17:34:53.875Z,60.50
2017-08-22T17:37:21.449Z,60.30
2017-08-22T17:39:49.015Z,60.60
2017-08-22T17:42:16.723Z,60.50
2017-08-22T17:44:44.396Z,60.40
2017-08-22T17:47:12.005Z,61.30
2017-08-22T17:49:39.598Z,61.80
2017-08-22T17:52:07.139Z,62.20
2017-08-22T17:54:34.702Z,62.70
2017-08-22T17:57:02.576Z,62.70
2017-08-22T17:59:30.723Z,63.30
2017-08-22T18:01:58.708Z,63.00
2017-08-22T18:04:28.040Z,63.20
2017-08-22T18:06:55.718Z,63.90
2017-08-22T18:09:23.372Z,64.30
2017-08-22T18:11:51.156Z,64.70
2017-08-22T18:14:19.031Z,64.70
2017-08-22T18:16:46.798Z,65.10
2017-08-22T18:19:14.561Z,64.80
2017-08-22T18:21:44.325Z,65.10
2017-08-22T18:24:12.046Z,65.60
2017-08-22T18:26:39.852Z,65.70
2017-08-22T18:29:07.500Z,66.00
2017-08-22T18:31:35.209Z,66.20
2017-08-22T18:34:03.085Z,66.60
2017-08-22T18:36:31.254Z,66.50
2017-08-22T18:38:59.224Z,67.00
2017-08-22T18:41:27.296Z,66.90
2017-08-22T18:43:55.286Z,67.40
2017-08-22T18:46:23.305Z,66.40
2017-08-22T18:48:51.141Z,67.00
2017-08-22T18:51:20.053Z,67.70
2017-08-22T18:53:47.618Z,67.60
2017-08-22T18:56:15.500Z,67.90
2017-08-22T18:58:43.046Z,68.00
2017-08-22T19:01:10.590Z,68.10
2017-08-22T19:03:38.114Z,68.10
2017-08-22T19:06:05.621Z,68.50
2017-08-22T19:08:33.479Z,68.90
2017-08-22T19:11:01.020Z,69.60
2017-08-22T19:13:28.530Z,69.40
2017-08-22T19:15:56.085Z,69.10
2017-08-22T19:18:23.652Z,68.70
2017-08-22T19:20:51.187Z,68.80
2017-08-22T19:23:18.717Z,69.10
2017-08-22T19:25:46.242Z,69.70
2017-08-22T19:28:13.783Z,70.20
2017-08-22T19:30:41.330Z,70.60
2017-08-22T19:33:08.857Z,71.00
2017-08-22T19:35:36.382Z,71.40
2017-08-22T19:38:03.943Z,71.70
2017-08-22T19:40:31.483Z,71.20
2017-08-22T19:43:01.562Z,72.30
2017-08-22T19:45:29.092Z,72.70
2017-08-22T19:47:56.604Z,73.10
2017-08-22T19:50:24.135Z,73.90
2017-08-22T19:52:51.863Z,74.50
2017-08-22T19:55:19.388Z,74.90
2017-08-22T19:57:46.907Z,75.50
2017-08-22T20:00:14.516Z,76.00
2017-08-22T20:02:42.032Z,76.70
2017-08-22T20:05:09.535Z,77.40
2017-08-22T20:07:37.055Z,77.50
2017-08-22T20:10:04.553Z,77.70
2017-08-22T20:12:32.087Z,78.20
2017-08-22T20:14:59.618Z,78.50
2017-08-22T20:17:27.130Z,79.00
2017-08-22T20:19:54.642Z,79.40
2017-08-22T20:22:22.253Z,79.90
2017-08-22T20:24:49.764Z,80.00
2017-08-22T20:27:17.283Z,80.30
2017-08-22T20:29:44.803Z,80.50
2017-08-22T20:32:12.336Z,81.00
2017-08-22T20:34:39.837Z,81.20
2017-08-22T20:37:07.367Z,81.40
2017-08-22T20:39:34.863Z,81.70
2017-08-22T20:42:02.449Z,82.00
2017-08-22T20:44:29.950Z,82.20
2017-08-22T20:46:57.445Z,82.60
2017-08-22T20:49:24.981Z,82.80
2017-08-22T20:51:52.494Z,83.10
2017-08-22T20:54:20.075Z,83.10
2017-08-22T20:56:47.767Z,83.20
2017-08-22T20:59:15.314Z,83.40
2017-08-22T21:01:42.832Z,83.80
2017-08-22T21:04:10.391Z,84.40
2017-08-22T21:06:37.919Z,84.60
2017-08-22T21:09:05.502Z,84.20
2017-08-22T21:11:33.047Z,84.20
2017-08-22T21:14:00.573Z,84.20
2017-08-22T21:16:28.181Z,84.60
2017-08-22T21:18:55.797Z,84.70
2017-08-22T21:21:23.333Z,84.90
2017-08-22T21:23:50.944Z,85.30
2017-08-22T21:26:18.675Z,85.40
2017-08-22T21:28:46.234Z,85.70
2017-08-22T21:31:13.758Z,85.90
2017-08-22T21:33:41.343Z,85.90
2017-08-22T21:36:08.844Z,86.30
2017-08-22T21:38:36.353Z,86.50
2017-08-22T21:41:04.000Z,87.20
2017-08-22T21:43:31.522Z,87.00
2017-08-22T21:45:59.025Z,87.50
2017-08-22T21:48:26.548Z,87.80
2017-08-22T21:50:54.054Z,87.90
2017-08-22T21:53:22.183Z,88.00
2017-08-22T21:55:49.714Z,88.50
2017-08-22T21:58:17.236Z,88.40
2017-08-22T22:00:44.738Z,88.60
2017-08-22T22:03:12.255Z,88.60
2017-08-22T22:05:40.122Z,88.90
2017-08-22T22:08:07.643Z,89.00
2017-08-22T22:10:39.577Z,88.10
2017-08-22T22:13:08.545Z,88.10
2017-08-22T22:15:36.106Z,87.80
2017-08-22T22:18:04.525Z,88.00
2017-08-22T22:20:32.046Z,87.00
2017-08-22T22:22:59.577Z,87.50
2017-08-22T22:25:27.462Z,87.80
2017-08-22T22:27:55.025Z,87.80
2017-08-22T22:30:24.579Z,88.00
2017-08-22T22:32:52.095Z,86.40
2017-08-22T22:35:19.580Z,85.50
2017-08-22T22:37:47.084Z,86.60
2017-08-22T22:40:17.455Z,86.20
2017-08-22T22:42:44.990Z,86.70
2017-08-22T22:45:12.514Z,87.30
2017-08-22T22:47:40.041Z,87.30
2017-08-22T22:50:07.881Z,88.10
2017-08-22T22:52:35.412Z,86.70
2017-08-22T22:55:02.941Z,87.30
2017-08-22T22:57:31.594Z,87.40
2017-08-22T22:59:59.145Z,88.00
2017-08-22T23:02:26.678Z,86.80
2017-08-22T23:04:54.173Z,87.60
2017-08-22T23:07:21.680Z,86.30
2017-08-22T23:09:49.562Z,87.50
2017-08-22T23:12:17.093Z,85.60
2017-08-22T23:14:44.613Z,87.40
2017-08-22T23:17:12.097Z,87.90
2017-08-22T23:19:39.595Z,88.40
2017-08-22T23:22:07.112Z,88.10
2017-08-22T23:24:34.619Z,88.50
2017-08-22T23:27:02.130Z,89.00
2017-08-22T23:29:29.895Z,88.70
2017-08-22T23:31:57.393Z,89.30
2017-08-22T23:34:24.911Z,89.60
2017-08-22T23:36:52.415Z,89.40
2017-08-22T23:39:19.936Z,89.70
2017-08-22T23:41:47.458Z,89.00
2017-08-22T23:44:14.979Z,89.60
2017-08-22T23:46:42.495Z,90.00
2017-08-22T23:49:10.020Z,89.20
2017-08-22T23:51:37.531Z,89.20
2017-08-22T23:54:05.063Z,89.80
2017-08-22T23:56:32.570Z,90.00
2017-08-22T23:59:00.067Z,88.60
